createdAt,value
2022-11-07T00:01:20.439Z,1.30
2022-11-07T00:03:47.284Z,1.40
2022-11-07T00:06:13.983Z,1.20
2022-11-07T00:08:40.760Z,1.27
2022-11-07T00:11:07.808Z,1.30
2022-11-07T00:13:34.795Z,1.50
2022-11-07T00:16:07.491Z,1.38
2022-11-07T00:18:34.547Z,1.40
2022-11-07T00:21:02.628Z,1.20
2022-11-07T00:26:04.997Z,1.38
2022-11-07T00:28:35.836Z,1.25
2022-11-07T00:31:03.538Z,1.33
2022-11-07T00:33:30.356Z,1.65
2022-11-07T00:35:57.131Z,1.30
2022-11-07T00:38:23.861Z,1.30
2022-11-07T00:40:58.410Z,1.15
2022-11-07T00:43:25.859Z,1.20
2022-11-07T00:45:52.801Z,1.10
2022-11-07T00:48:19.840Z,1.10
2022-11-07T00:50:46.868Z,1.20
2022-11-07T00:53:13.879Z,1.15
2022-11-07T00:55:41.010Z,1.50
2022-11-07T00:58:13.789Z,1.20
2022-11-07T01:00:41.872Z,1.20
2022-11-07T01:03:28.018Z,1.27
2022-11-07T01:05:59.146Z,1.30
2022-11-07T01:08:26.110Z,1.15
2022-11-07T01:10:55.954Z,1.40
2022-11-07T01:13:23.666Z,1.20
2022-11-07T01:15:50.892Z,1.20
2022-11-07T01:18:17.819Z,1.37
2022-11-07T01:20:44.626Z,1.30
2022-11-07T01:23:11.490Z,1.33
2022-11-07T01:25:39.075Z,1.42
2022-11-07T01:28:06.951Z,1.13
2022-11-07T01:30:33.946Z,1.17
2022-11-07T01:33:00.705Z,1.10
2022-11-07T01:35:27.519Z,1.27
2022-11-07T01:37:54.390Z,1.60
2022-11-07T01:40:21.220Z,1.30
2022-11-07T01:42:47.946Z,1.20
2022-11-07T01:45:24.822Z,1.33
2022-11-07T01:47:54.781Z,1.20
2022-11-07T01:50:24.775Z,1.30
2022-11-07T01:52:55.377Z,1.17
2022-11-07T01:55:29.656Z,1.08
2022-11-07T01:58:01.911Z,1.10
2022-11-07T02:00:30.851Z,1.17
2022-11-07T02:03:10.265Z,1.15
2022-11-07T02:06:02.717Z,1.10
2022-11-07T02:08:32.501Z,1.00
2022-11-07T02:11:00.750Z,1.10
2022-11-07T02:13:30.956Z,1.30
2022-11-07T02:16:01.511Z,1.10
2022-11-07T02:18:29.366Z,1.40
2022-11-07T02:21:01.297Z,1.40
2022-11-07T02:23:48.252Z,1.10
2022-11-07T02:26:15.378Z,1.10
2022-11-07T02:28:43.619Z,1.40
2022-11-07T02:31:10.345Z,1.23
2022-11-07T02:33:37.096Z,1.23
2022-11-07T02:36:04.767Z,1.20
2022-11-07T02:38:35.522Z,1.08
2022-11-07T02:41:12.740Z,1.05
2022-11-07T02:43:42.835Z,1.10
2022-11-07T02:46:11.807Z,1.20
2022-11-07T02:49:05.040Z,1.20
2022-11-07T02:51:32.567Z,1.17
2022-11-07T02:53:59.372Z,1.33
2022-11-07T02:56:26.406Z,1.30
2022-11-07T02:58:53.282Z,1.00
2022-11-07T03:01:20.957Z,1.30
2022-11-07T03:03:53.263Z,1.35
2022-11-07T03:06:23.406Z,1.35
2022-11-07T03:08:50.360Z,1.45
2022-11-07T03:11:20.254Z,1.20
2022-11-07T03:13:48.512Z,1.35
2022-11-07T03:16:17.595Z,1.20
2022-11-07T03:18:45.047Z,1.23
2022-11-07T03:21:11.945Z,1.08
2022-11-07T03:23:38.689Z,1.17
2022-11-07T03:26:05.832Z,1.00
2022-11-07T03:28:33.097Z,1.47
2022-11-07T03:31:01.220Z,1.30
2022-11-07T03:35:55.416Z,1.15
2022-11-07T03:38:22.587Z,1.20
2022-11-07T03:40:49.461Z,1.13
2022-11-07T03:43:16.519Z,1.25
2022-11-07T03:45:43.719Z,1.30
2022-11-07T03:48:10.412Z,1.30
2022-11-07T03:50:37.118Z,1.42
2022-11-07T03:53:03.868Z,1.20
2022-11-07T03:55:30.600Z,1.30
2022-11-07T03:57:57.369Z,1.27
2022-11-07T04:00:24.135Z,1.27
2022-11-07T04:02:50.983Z,1.20
2022-11-07T04:05:17.891Z,1.10
2022-11-07T04:07:44.701Z,1.40
2022-11-07T04:10:11.425Z,1.40
2022-11-07T04:12:56.486Z,1.38
2022-11-07T04:15:41.794Z,1.30
2022-11-07T04:18:08.525Z,1.20
2022-11-07T04:20:35.233Z,1.30
2022-11-07T04:23:01.965Z,1.20
2022-11-07T04:25:48.944Z,1.20
2022-11-07T04:28:18.080Z,1.00
2022-11-07T04:30:44.848Z,1.30
2022-11-07T04:33:12.857Z,1.30
2022-11-07T04:35:39.745Z,1.10
2022-11-07T04:38:06.570Z,1.15
2022-11-07T04:40:33.304Z,1.20
2022-11-07T04:43:00.069Z,1.20
2022-11-07T04:45:26.999Z,1.27
2022-11-07T04:47:54.286Z,1.20
2022-11-07T04:50:21.080Z,1.30
2022-11-07T04:52:50.611Z,1.00
2022-11-07T04:55:23.997Z,1.20
2022-11-07T04:57:50.871Z,1.05
2022-11-07T05:00:19.543Z,1.13
2022-11-07T05:02:47.308Z,1.10
2022-11-07T05:05:14.111Z,1.27
2022-11-07T05:07:43.963Z,1.38
2022-11-07T05:10:21.332Z,1.30
2022-11-07T05:12:48.737Z,1.38
2022-11-07T05:15:15.599Z,1.10
2022-11-07T05:17:42.457Z,1.40
2022-11-07T05:20:26.541Z,1.40
2022-11-07T05:23:12.192Z,1.23
2022-11-07T05:25:40.005Z,1.27
2022-11-07T05:28:07.022Z,1.10
2022-11-07T05:30:33.730Z,1.10
2022-11-07T05:33:00.453Z,1.30
2022-11-07T05:35:27.184Z,1.00
2022-11-07T05:37:54.248Z,1.20
2022-11-07T05:40:21.028Z,1.10
2022-11-07T05:42:47.786Z,1.05
2022-11-07T05:45:14.622Z,1.25
2022-11-07T05:47:41.338Z,1.30
2022-11-07T05:50:08.630Z,1.23
2022-11-07T05:52:35.445Z,1.00
2022-11-07T05:55:02.216Z,1.40
2022-11-07T05:57:30.693Z,1.10
2022-11-07T05:59:57.436Z,1.10
2022-11-07T06:02:24.251Z,1.38
2022-11-07T06:04:51.186Z,1.10
2022-11-07T06:07:17.877Z,1.40
2022-11-07T06:09:44.618Z,1.30
2022-11-07T06:12:11.323Z,1.00
2022-11-07T06:14:38.060Z,1.33
2022-11-07T06:17:04.861Z,1.50
2022-11-07T06:19:31.551Z,1.30
2022-11-07T06:22:00.454Z,1.10
2022-11-07T06:24:27.823Z,1.20
2022-11-07T06:26:54.513Z,1.20
2022-11-07T06:29:21.221Z,1.20
2022-11-07T06:31:48.062Z,1.13
2022-11-07T06:34:14.825Z,1.23
2022-11-07T06:36:41.607Z,1.27
2022-11-07T06:39:08.351Z,1.02
2022-11-07T06:41:35.116Z,1.35
2022-11-07T06:44:01.855Z,1.20
2022-11-07T06:46:28.595Z,1.20
2022-11-07T06:48:55.369Z,1.20
2022-11-07T06:51:22.157Z,1.20
2022-11-07T06:53:50.340Z,1.20
2022-11-07T06:56:17.111Z,1.25
2022-11-07T06:58:43.857Z,1.10
2022-11-07T07:01:13.721Z,1.00
2022-11-07T07:03:42.125Z,1.10
2022-11-07T07:06:13.479Z,1.08
2022-11-07T07:08:40.681Z,1.30
2022-11-07T07:11:10.152Z,1.27
2022-11-07T07:13:37.186Z,1.20
2022-11-07T07:16:04.572Z,1.20
2022-11-07T07:18:31.462Z,1.20
2022-11-07T07:21:05.804Z,1.10
2022-11-07T07:23:34.720Z,1.27
2022-11-07T07:26:03.150Z,1.10
2022-11-07T07:28:30.140Z,1.10
2022-11-07T07:31:30.684Z,0.93
2022-11-07T07:33:58.120Z,1.10
2022-11-07T07:36:25.457Z,1.05
2022-11-07T07:38:52.424Z,1.20
2022-11-07T07:41:19.824Z,1.30
2022-11-07T07:43:46.649Z,1.30
2022-11-07T07:46:22.425Z,1.00
2022-11-07T07:48:49.431Z,1.00
2022-11-07T07:51:18.289Z,1.15
2022-11-07T07:53:45.029Z,1.40
2022-11-07T07:56:12.367Z,1.67
2022-11-07T07:58:39.549Z,2.40
2022-11-07T08:01:10.390Z,2.00
2022-11-07T08:04:00.177Z,2.00
2022-11-07T08:06:28.095Z,1.80
2022-11-07T08:08:55.322Z,1.90
2022-11-07T08:11:23.097Z,1.73
2022-11-07T08:13:50.308Z,1.70
2022-11-07T08:16:17.579Z,1.40
2022-11-07T08:18:44.303Z,1.52
2022-11-07T08:21:11.125Z,1.70
2022-11-07T08:23:38.098Z,1.40
2022-11-07T08:26:06.070Z,1.60
2022-11-07T08:31:07.715Z,1.50
2022-11-07T08:33:35.147Z,1.73
2022-11-07T08:36:03.900Z,1.60
2022-11-07T08:38:32.603Z,1.80
2022-11-07T08:41:02.610Z,1.40
2022-11-07T08:43:29.779Z,1.98
2022-11-07T08:45:56.961Z,1.57
2022-11-07T08:48:24.877Z,1.63
2022-11-07T08:53:25.018Z,1.55
2022-11-07T08:55:52.281Z,1.80
2022-11-07T08:58:20.062Z,1.40
2022-11-07T09:00:47.244Z,1.33
2022-11-07T09:06:01.909Z,1.58
2022-11-07T09:08:29.321Z,1.63
2022-11-07T09:10:56.089Z,1.17
2022-11-07T09:13:22.795Z,1.60
2022-11-07T09:15:51.671Z,1.55
2022-11-07T09:18:19.214Z,1.40
2022-11-07T09:20:45.961Z,1.48
2022-11-07T09:23:12.726Z,1.67
2022-11-07T09:25:39.444Z,1.52
2022-11-07T09:28:06.768Z,1.60
2022-11-07T09:30:33.577Z,1.50
2022-11-07T09:33:00.633Z,1.40
2022-11-07T09:35:27.746Z,1.50
2022-11-07T09:37:55.071Z,1.20
2022-11-07T09:40:51.696Z,1.65
2022-11-07T09:43:39.872Z,1.38
2022-11-07T09:46:12.261Z,1.50
2022-11-07T09:48:47.785Z,1.38
2022-11-07T09:51:24.774Z,1.42
2022-11-07T09:54:00.563Z,1.43
2022-11-07T09:56:29.737Z,1.25
2022-11-07T09:58:59.360Z,1.30
2022-11-07T10:01:30.324Z,1.40
2022-11-07T10:04:23.520Z,1.70
2022-11-07T10:07:08.687Z,1.50
2022-11-07T10:09:57.281Z,1.30
2022-11-07T10:13:05.916Z,1.80
2022-11-07T10:15:44.534Z,1.80
2022-11-07T10:18:17.493Z,1.73
2022-11-07T10:21:36.580Z,1.40
2022-11-07T10:24:18.635Z,1.98
2022-11-07T10:26:45.935Z,1.75
2022-11-07T10:29:20.967Z,1.90
2022-11-07T10:31:57.343Z,2.42
2022-11-07T10:34:36.485Z,2.42
2022-11-07T10:37:04.139Z,2.10
2022-11-07T10:39:32.246Z,2.67
2022-11-07T10:44:42.407Z,2.50
2022-11-07T10:47:20.710Z,3.05
2022-11-07T10:49:59.405Z,2.50
2022-11-07T10:52:29.755Z,2.42
2022-11-07T10:55:07.308Z,2.35
2022-11-07T10:57:35.541Z,2.13
2022-11-07T11:00:04.442Z,2.50
2022-11-07T11:02:46.997Z,2.55
2022-11-07T11:05:25.422Z,2.40
2022-11-07T11:07:54.198Z,2.20
2022-11-07T11:10:24.533Z,2.50
2022-11-07T11:12:52.076Z,2.40
2022-11-07T11:15:32.754Z,2.35
2022-11-07T11:18:03.841Z,2.05
2022-11-07T11:21:01.574Z,2.25
2022-11-07T11:26:32.477Z,2.20
2022-11-07T11:29:11.351Z,3.20
2022-11-07T11:31:52.197Z,3.03
2022-11-07T11:34:32.546Z,2.40
2022-11-07T11:37:05.897Z,2.45
2022-11-07T11:39:58.596Z,2.38
2022-11-07T11:42:49.813Z,2.30
2022-11-07T11:45:19.198Z,2.28
2022-11-07T11:47:55.798Z,2.47
2022-11-07T11:50:45.184Z,2.58
2022-11-07T11:53:18.556Z,2.65
2022-11-07T11:56:08.943Z,2.45
2022-11-07T11:59:10.981Z,2.72
2022-11-07T12:01:45.238Z,2.28
2022-11-07T12:04:49.415Z,2.30
2022-11-07T12:07:35.013Z,2.47
2022-11-07T12:10:19.946Z,2.50
2022-11-07T12:13:17.378Z,2.10
2022-11-07T12:18:27.714Z,2.50
2022-11-07T12:20:57.316Z,1.95
2022-11-07T12:24:09.048Z,2.33
2022-11-07T12:26:50.935Z,2.25
2022-11-07T12:29:28.118Z,2.30
2022-11-07T12:32:11.635Z,1.90
2022-11-07T12:35:07.546Z,2.15
2022-11-07T12:38:02.102Z,2.30
2022-11-07T12:41:03.831Z,2.35
2022-11-07T12:44:08.076Z,1.98
2022-11-07T12:46:58.116Z,2.17
2022-11-07T12:49:42.698Z,1.83
2022-11-07T12:52:26.711Z,2.20
2022-11-07T12:54:56.705Z,2.03
2022-11-07T12:57:27.602Z,2.15
2022-11-07T12:59:59.930Z,1.73
2022-11-07T13:02:38.044Z,1.90
2022-11-07T13:05:29.494Z,2.00
2022-11-07T13:08:34.944Z,2.38
2022-11-07T13:11:07.166Z,2.30
2022-11-07T13:14:11.448Z,12.07
2022-11-07T13:16:48.719Z,3.55
2022-11-07T13:19:32.901Z,3.20
2022-11-07T13:22:08.358Z,3.78
2022-11-07T13:24:38.978Z,3.10
2022-11-07T13:27:21.101Z,2.60
2022-11-07T13:29:50.103Z,3.13
2022-11-07T13:32:18.006Z,3.58
2022-11-07T13:35:01.065Z,3.50
2022-11-07T13:37:34.650Z,3.63
2022-11-07T13:40:25.548Z,3.75
2022-11-07T13:42:57.206Z,4.05
2022-11-07T13:45:45.909Z,3.40
2022-11-07T13:48:23.774Z,3.60
2022-11-07T13:50:56.633Z,4.53
2022-11-07T13:53:33.472Z,2.92
2022-11-07T13:56:30.903Z,2.67
2022-11-07T13:58:59.923Z,2.45
2022-11-07T14:01:27.174Z,2.53
2022-11-07T14:03:54.491Z,2.53
2022-11-07T14:06:21.422Z,3.03
2022-11-07T14:08:49.092Z,2.55
2022-11-07T14:11:21.439Z,2.53
2022-11-07T14:13:50.962Z,2.47
2022-11-07T14:16:23.687Z,2.58
2022-11-07T14:18:58.541Z,2.17
2022-11-07T14:21:33.416Z,2.47
2022-11-07T14:24:01.725Z,2.33
2022-11-07T14:26:32.926Z,2.70
2022-11-07T14:29:00.939Z,2.65
2022-11-07T14:34:01.925Z,2.30
2022-11-07T14:36:30.418Z,2.70
2022-11-07T14:39:12.804Z,2.35
2022-11-07T14:41:45.530Z,2.22
2022-11-07T14:44:56.650Z,2.58
2022-11-07T14:47:29.373Z,2.40
2022-11-07T14:49:59.380Z,2.42
2022-11-07T14:52:40.878Z,2.20
2022-11-07T14:55:40.151Z,2.33
2022-11-07T14:58:10.934Z,2.40
2022-11-07T15:00:38.618Z,2.40
2022-11-07T15:03:05.368Z,2.10
2022-11-07T15:05:44.942Z,2.40
2022-11-07T15:08:34.693Z,2.22
2022-11-07T15:11:04.637Z,2.00
2022-11-07T15:13:34.933Z,2.10
2022-11-07T15:16:07.879Z,2.08
2022-11-07T15:18:40.749Z,2.10
2022-11-07T15:21:12.324Z,2.15
2022-11-07T15:23:39.391Z,2.28
2022-11-07T15:26:06.648Z,2.00
2022-11-07T15:28:42.480Z,2.03
2022-11-07T15:31:27.824Z,2.33
2022-11-07T15:33:57.246Z,2.10
2022-11-07T15:36:25.552Z,1.83
2022-11-07T15:38:53.291Z,1.75
2022-11-07T15:41:20.707Z,1.73
2022-11-07T15:43:47.695Z,1.90
2022-11-07T15:46:34.897Z,2.80
2022-11-07T15:49:02.584Z,2.40
2022-11-07T15:51:30.077Z,2.42
2022-11-07T15:53:57.015Z,2.28
2022-11-07T15:56:25.713Z,2.10
2022-11-07T15:58:53.809Z,2.38
2022-11-07T16:01:20.626Z,2.35
2022-11-07T16:03:47.943Z,2.47
2022-11-07T16:06:30.532Z,2.10
2022-11-07T16:08:58.337Z,2.10
2022-11-07T16:11:25.110Z,2.17
2022-11-07T16:13:59.302Z,2.30
2022-11-07T16:16:37.405Z,1.90
2022-11-07T16:19:04.692Z,2.28
2022-11-07T16:21:31.438Z,2.17
2022-11-07T16:23:58.208Z,1.92
2022-11-07T16:26:30.004Z,1.95
2022-11-07T16:28:57.217Z,1.77
2022-11-07T16:31:24.031Z,2.00
2022-11-07T16:33:51.335Z,2.15
2022-11-07T16:36:28.466Z,1.92
2022-11-07T16:38:55.457Z,2.10
2022-11-07T16:41:23.325Z,2.13
2022-11-07T16:43:50.212Z,1.77
2022-11-07T16:46:20.344Z,2.00
2022-11-07T16:48:51.139Z,1.70
2022-11-07T16:51:21.867Z,1.98
2022-11-07T16:53:49.442Z,2.08
2022-11-07T16:56:32.167Z,2.13
2022-11-07T16:58:59.169Z,2.30
2022-11-07T17:01:27.629Z,2.33
2022-11-07T17:03:55.321Z,2.00
2022-11-07T17:06:33.931Z,2.08
2022-11-07T17:09:10.379Z,1.90
2022-11-07T17:11:39.067Z,2.10
2022-11-07T17:14:05.841Z,1.70
2022-11-07T17:16:36.531Z,2.00
2022-11-07T17:19:05.644Z,1.90
2022-11-07T17:21:36.882Z,2.00
2022-11-07T17:24:04.670Z,2.05
2022-11-07T17:26:37.656Z,2.03
2022-11-07T17:29:07.098Z,1.92
2022-11-07T17:31:34.020Z,2.03
2022-11-07T17:34:01.459Z,2.15
2022-11-07T17:36:37.523Z,1.80
2022-11-07T17:39:10.811Z,1.80
2022-11-07T17:41:39.370Z,1.85
2022-11-07T17:44:08.992Z,1.70
2022-11-07T17:46:45.092Z,1.70
2022-11-07T17:49:16.731Z,1.90
2022-11-07T17:51:44.024Z,1.88
2022-11-07T17:54:15.355Z,1.80
2022-11-07T17:56:42.393Z,2.42
2022-11-07T17:59:13.518Z,1.60
2022-11-07T18:01:40.775Z,2.20
2022-11-07T18:04:09.416Z,2.10
2022-11-07T18:06:38.916Z,1.95
2022-11-07T18:09:07.232Z,1.88
2022-11-07T18:11:35.273Z,1.75
2022-11-07T18:16:31.683Z,1.88
2022-11-07T18:18:59.656Z,1.90
2022-11-07T18:23:53.700Z,1.85
2022-11-07T18:26:27.217Z,1.85
2022-11-07T18:28:56.916Z,1.85
2022-11-07T18:31:24.179Z,1.80
2022-11-07T18:33:57.668Z,1.70
2022-11-07T18:36:24.533Z,2.10
2022-11-07T18:38:51.290Z,1.70
2022-11-07T18:41:20.806Z,1.83
2022-11-07T18:43:48.249Z,1.75
2022-11-07T18:46:17.508Z,1.73
2022-11-07T18:48:44.207Z,1.88
2022-11-07T18:51:17.056Z,1.80
2022-11-07T18:53:44.122Z,1.67
2022-11-07T18:56:12.672Z,1.88
2022-11-07T18:58:41.454Z,2.03
2022-11-07T19:01:17.578Z,1.60
2022-11-07T19:03:45.568Z,1.80
2022-11-07T19:06:16.935Z,1.80
2022-11-07T19:08:44.977Z,1.55
2022-11-07T19:13:41.615Z,1.88
2022-11-07T19:16:10.783Z,1.60
2022-11-07T19:18:41.384Z,1.80
2022-11-07T19:21:09.918Z,1.73
2022-11-07T19:23:38.456Z,1.85
2022-11-07T19:26:07.004Z,1.50
2022-11-07T19:28:36.065Z,1.92
2022-11-07T19:31:04.581Z,2.08
2022-11-07T19:33:34.447Z,1.90
2022-11-07T19:36:04.851Z,2.00
2022-11-07T19:38:31.834Z,1.88
2022-11-07T19:41:02.510Z,1.58
2022-11-07T19:43:32.100Z,2.00
2022-11-07T19:45:59.405Z,2.10
2022-11-07T19:48:26.204Z,1.80
2022-11-07T19:50:53.482Z,1.85
2022-11-07T19:53:21.530Z,2.00
2022-11-07T19:58:15.835Z,1.80
2022-11-07T20:00:44.801Z,1.80
2022-11-07T20:03:11.775Z,1.40
2022-11-07T20:05:39.890Z,1.50
2022-11-07T20:10:34.001Z,1.60
2022-11-07T20:13:00.923Z,1.70
2022-11-07T20:15:28.199Z,1.85
2022-11-07T20:17:54.908Z,1.40
2022-11-07T20:20:21.682Z,1.70
2022-11-07T20:22:48.703Z,1.80
2022-11-07T20:25:15.465Z,1.83
2022-11-07T20:27:42.267Z,1.90
2022-11-07T20:30:09.987Z,2.15
2022-11-07T20:32:36.868Z,1.58
2022-11-07T20:35:04.053Z,1.75
2022-11-07T20:37:30.812Z,1.60
2022-11-07T20:39:57.680Z,1.63
2022-11-07T20:42:24.430Z,1.77
2022-11-07T20:44:51.291Z,1.70
2022-11-07T20:47:18.590Z,1.75
2022-11-07T20:49:45.336Z,1.53
2022-11-07T20:52:12.109Z,1.77
2022-11-07T20:54:38.901Z,1.50
2022-11-07T20:57:05.752Z,1.52
2022-11-07T20:59:33.319Z,1.63
2022-11-07T21:02:03.827Z,1.67
2022-11-07T21:04:44.468Z,1.77
2022-11-07T21:07:19.656Z,1.70
2022-11-07T21:12:13.871Z,1.60
2022-11-07T21:14:42.225Z,1.67
2022-11-07T21:17:09.741Z,1.52
2022-11-07T21:19:36.833Z,1.50
2022-11-07T21:22:04.355Z,1.60
2022-11-07T21:24:31.770Z,1.45
2022-11-07T21:26:59.028Z,1.65
2022-11-07T21:29:29.496Z,1.60
2022-11-07T21:31:57.004Z,1.58
2022-11-07T21:34:24.306Z,1.60
2022-11-07T21:36:51.195Z,1.70
2022-11-07T21:39:18.071Z,1.42
2022-11-07T21:41:45.222Z,1.60
2022-11-07T21:44:14.253Z,1.43
2022-11-07T21:46:41.037Z,1.50
2022-11-07T21:49:08.479Z,1.40
2022-11-07T21:51:35.997Z,1.30
2022-11-07T21:54:04.282Z,1.38
2022-11-07T21:56:35.910Z,1.48
2022-11-07T21:59:06.120Z,1.25
2022-11-07T22:01:35.151Z,1.50
2022-11-07T22:04:09.065Z,1.45
2022-11-07T22:06:39.496Z,1.30
2022-11-07T22:09:07.977Z,1.48
2022-11-07T22:11:34.845Z,1.27
2022-11-07T22:14:01.741Z,1.20
2022-11-07T22:16:28.615Z,1.30
2022-11-07T22:18:55.899Z,1.23
2022-11-07T22:21:23.476Z,1.23
2022-11-07T22:23:51.147Z,1.50
2022-11-07T22:26:20.889Z,1.30
2022-11-07T22:28:48.153Z,1.33
2022-11-07T22:31:17.950Z,1.20
2022-11-07T22:33:44.796Z,1.30
2022-11-07T22:36:12.253Z,1.50
2022-11-07T22:38:40.222Z,1.40
2022-11-07T22:41:13.738Z,1.40
2022-11-07T22:43:40.476Z,1.40
2022-11-07T22:46:10.354Z,1.20
2022-11-07T22:48:37.641Z,1.50
2022-11-07T22:51:10.669Z,1.50
2022-11-07T22:53:40.836Z,1.30
2022-11-07T22:56:11.365Z,1.73
2022-11-07T22:58:38.957Z,1.35
2022-11-07T23:01:07.662Z,1.45
2022-11-07T23:03:34.415Z,1.33
2022-11-07T23:06:05.052Z,1.27
2022-11-07T23:08:34.287Z,1.27
2022-11-07T23:13:51.896Z,1.60
2022-11-07T23:16:23.708Z,1.38
2022-11-07T23:18:51.047Z,1.30
2022-11-07T23:21:19.908Z,1.60
2022-11-07T23:23:47.495Z,1.20
2022-11-07T23:26:18.738Z,1.17
2022-11-07T23:28:46.533Z,1.42
2022-11-07T23:31:13.901Z,1.20
2022-11-07T23:33:40.917Z,1.10
2022-11-07T23:36:13.100Z,1.23
2022-11-07T23:38:39.896Z,1.50
2022-11-07T23:41:08.220Z,1.35
2022-11-07T23:43:35.134Z,1.25
2022-11-07T23:46:21.488Z,1.17
2022-11-07T23:49:11.895Z,1.20
2022-11-07T23:51:41.128Z,1.20
2022-11-07T23:54:26.412Z,1.30
2022-11-07T23:56:53.127Z,1.20
2022-11-07T23:59:38.627Z,1.20
